createdAt,value
2018-05-29T00:02:26.419Z,75.70
2018-05-29T00:04:54.691Z,75.10
2018-05-29T00:07:22.971Z,75.30
2018-05-29T00:09:51.273Z,75.80
2018-05-29T00:12:18.807Z,75.80
2018-05-29T00:14:46.318Z,76.40
2018-05-29T00:17:13.854Z,76.50
2018-05-29T00:19:42.125Z,76.20
2018-05-29T00:22:10.409Z,75.90
2018-05-29T00:24:38.726Z,76.30
2018-05-29T00:27:06.259Z,76.20
2018-05-29T00:29:34.553Z,76.40
2018-05-29T00:32:02.105Z,76.30
2018-05-29T00:34:30.409Z,76.90
2018-05-29T00:36:58.085Z,76.90
2018-05-29T00:39:25.640Z,76.90
2018-05-29T00:41:53.170Z,76.60
2018-05-29T00:44:21.462Z,76.50
2018-05-29T00:46:49.773Z,76.80
2018-05-29T00:49:17.333Z,76.60
2018-05-29T00:51:44.868Z,76.80
2018-05-29T00:54:13.187Z,77.30
2018-05-29T00:56:40.706Z,77.10
2018-05-29T00:59:08.387Z,77.30
2018-05-29T01:01:36.694Z,77.40
2018-05-29T01:04:04.214Z,77.40
2018-05-29T01:06:31.757Z,77.30
2018-05-29T01:08:59.305Z,76.80
2018-05-29T01:11:26.826Z,78.30
2018-05-29T01:13:55.105Z,78.50
2018-05-29T01:16:23.430Z,78.10
2018-05-29T01:18:50.949Z,78.00
2018-05-29T01:21:19.234Z,78.50
2018-05-29T01:23:47.541Z,78.40
2018-05-29T01:26:15.063Z,78.40
2018-05-29T01:28:43.449Z,79.30
2018-05-29T01:31:11.821Z,78.50
2018-05-29T01:33:39.460Z,78.40
2018-05-29T01:36:06.984Z,78.40
2018-05-29T01:38:35.299Z,78.20
2018-05-29T01:41:02.854Z,78.20
2018-05-29T01:43:30.393Z,78.60
2018-05-29T01:45:58.711Z,78.50
2018-05-29T01:48:26.230Z,78.50
2018-05-29T01:50:54.599Z,79.40
2018-05-29T01:53:22.105Z,79.30
2018-05-29T01:55:49.623Z,79.50
2018-05-29T01:58:17.160Z,79.50
2018-05-29T02:00:44.782Z,79.60
2018-05-29T02:03:13.084Z,79.50
2018-05-29T02:05:40.609Z,79.40
2018-05-29T02:08:09.030Z,79.00
2018-05-29T02:10:36.625Z,79.00
2018-05-29T02:13:04.152Z,79.00
2018-05-29T02:15:31.702Z,78.80
2018-05-29T02:17:59.993Z,80.40
2018-05-29T02:20:27.512Z,80.50
2018-05-29T02:22:55.062Z,79.80
2018-05-29T02:25:22.578Z,79.60
2018-05-29T02:27:50.902Z,80.00
2018-05-29T02:30:19.206Z,80.40
2018-05-29T02:32:46.719Z,79.60
2018-05-29T02:35:14.248Z,79.80
2018-05-29T02:37:42.571Z,80.20
2018-05-29T02:40:10.115Z,79.50
2018-05-29T02:42:37.669Z,80.30
2018-05-29T02:45:05.992Z,81.70
2018-05-29T02:47:34.281Z,80.90
2018-05-29T02:50:01.802Z,80.90
2018-05-29T02:52:30.118Z,80.80
2018-05-29T02:54:57.656Z,80.70
2018-05-29T02:57:25.182Z,81.10
2018-05-29T02:59:52.800Z,81.20
2018-05-29T03:02:20.466Z,81.90
2018-05-29T03:04:48.001Z,82.40
2018-05-29T03:07:15.558Z,82.30
2018-05-29T03:09:43.086Z,82.00
2018-05-29T03:12:10.602Z,82.00
2018-05-29T03:14:38.910Z,82.50
2018-05-29T03:17:06.445Z,82.50
2018-05-29T03:19:34.736Z,82.50
2018-05-29T03:22:02.298Z,82.50
2018-05-29T03:24:30.590Z,81.50
2018-05-29T03:26:58.109Z,81.50
2018-05-29T03:29:25.654Z,81.70
2018-05-29T03:31:53.169Z,82.40
2018-05-29T03:34:21.447Z,81.90
2018-05-29T03:36:49.025Z,81.80
2018-05-29T03:39:16.549Z,82.70
2018-05-29T03:41:44.069Z,82.30
2018-05-29T03:44:11.606Z,82.20
2018-05-29T03:46:39.898Z,81.90
2018-05-29T03:49:07.413Z,81.90
2018-05-29T03:51:34.954Z,82.00
2018-05-29T03:54:02.514Z,81.80
2018-05-29T03:56:30.060Z,81.90
2018-05-29T03:58:57.602Z,82.10
2018-05-29T04:01:25.137Z,81.90
2018-05-29T04:03:53.589Z,81.80
2018-05-29T04:06:21.149Z,81.80
2018-05-29T04:08:48.684Z,82.10
2018-05-29T04:11:16.990Z,82.90
2018-05-29T04:13:44.533Z,82.80
2018-05-29T04:16:12.048Z,82.50
2018-05-29T04:18:39.574Z,82.30
2018-05-29T04:21:07.115Z,82.60
2018-05-29T04:23:35.433Z,83.10
2018-05-29T04:26:02.951Z,82.20
2018-05-29T04:28:31.278Z,82.50
2018-05-29T04:30:58.801Z,81.90
2018-05-29T04:33:26.323Z,81.60
2018-05-29T04:35:53.860Z,81.40
2018-05-29T04:38:21.385Z,81.00
2018-05-29T04:40:48.910Z,81.50
2018-05-29T04:43:17.233Z,81.40
2018-05-29T04:45:44.749Z,81.40
2018-05-29T04:48:12.322Z,81.00
2018-05-29T04:50:39.889Z,81.70
2018-05-29T04:53:07.408Z,80.80
2018-05-29T04:55:35.700Z,80.70
2018-05-29T04:58:04.112Z,80.30
2018-05-29T05:00:31.633Z,80.30
2018-05-29T05:02:59.920Z,80.60
2018-05-29T05:05:28.526Z,80.80
2018-05-29T05:07:56.056Z,80.70
2018-05-29T05:10:23.579Z,80.70
2018-05-29T05:12:51.138Z,79.90
2018-05-29T05:15:18.661Z,79.80
2018-05-29T05:17:46.957Z,79.80
2018-05-29T05:20:15.298Z,79.40
2018-05-29T05:22:42.831Z,79.40
2018-05-29T05:25:10.394Z,78.50
2018-05-29T05:27:37.943Z,77.50
2018-05-29T05:30:05.515Z,77.40
2018-05-29T05:32:33.778Z,75.70
2018-05-29T05:35:01.336Z,75.70
2018-05-29T05:37:29.626Z,75.10
2018-05-29T05:39:57.157Z,75.10
2018-05-29T05:42:24.777Z,74.60
2018-05-29T05:44:52.301Z,73.00
2018-05-29T05:47:20.581Z,71.10
2018-05-29T05:49:48.909Z,69.50
2018-05-29T05:52:16.441Z,69.60
2018-05-29T05:54:44.725Z,70.70
2018-05-29T05:57:13.050Z,68.10
2018-05-29T05:59:40.593Z,68.00
2018-05-29T06:02:08.118Z,68.30
2018-05-29T06:04:35.665Z,68.20
2018-05-29T06:07:03.345Z,66.80
2018-05-29T06:09:31.642Z,66.00
2018-05-29T06:11:59.957Z,66.40
2018-05-29T06:14:27.478Z,66.40
2018-05-29T06:16:55.009Z,64.80
2018-05-29T06:19:22.559Z,65.00
2018-05-29T06:21:50.798Z,63.10
2018-05-29T06:24:19.260Z,61.50
2018-05-29T06:26:46.802Z,61.40
2018-05-29T06:29:14.329Z,60.80
2018-05-29T06:31:42.621Z,60.30
2018-05-29T06:34:10.173Z,60.20
2018-05-29T06:36:37.702Z,59.10
2018-05-29T06:39:06.133Z,58.80
2018-05-29T06:41:33.682Z,57.60
2018-05-29T06:44:01.231Z,57.30
2018-05-29T06:46:29.527Z,54.70
2018-05-29T06:48:57.066Z,54.60
2018-05-29T06:51:24.627Z,54.80
2018-05-29T06:53:53.669Z,52.10
2018-05-29T06:56:21.205Z,52.10
2018-05-29T06:58:49.505Z,50.10
2018-05-29T07:01:17.074Z,50.00
2018-05-29T07:03:44.619Z,50.60
2018-05-29T07:06:12.897Z,50.90
2018-05-29T07:08:41.274Z,49.60
2018-05-29T07:11:09.597Z,47.60
2018-05-29T07:13:37.124Z,47.50
2018-05-29T07:16:05.423Z,47.30
2018-05-29T07:18:33.742Z,46.20
2018-05-29T07:21:01.265Z,46.20
2018-05-29T07:23:29.561Z,43.40
2018-05-29T07:25:57.152Z,43.10
2018-05-29T07:28:24.681Z,42.80
2018-05-29T07:30:52.209Z,43.80
2018-05-29T07:33:21.285Z,43.20
2018-05-29T07:35:48.956Z,43.10
2018-05-29T07:38:16.502Z,41.90
2018-05-29T07:40:44.061Z,41.30
2018-05-29T07:43:11.585Z,40.60
2018-05-29T07:45:39.882Z,40.10
2018-05-29T07:48:08.201Z,39.70
2018-05-29T07:50:35.730Z,39.60
2018-05-29T07:53:04.009Z,39.40
2018-05-29T07:55:31.569Z,39.30
2018-05-29T07:57:59.094Z,40.80
2018-05-29T08:00:26.743Z,40.50
2018-05-29T08:02:54.377Z,37.60
2018-05-29T08:05:21.909Z,36.00
2018-05-29T08:07:50.570Z,35.90
2018-05-29T08:10:18.178Z,36.40
2018-05-29T08:12:46.458Z,36.00
2018-05-29T08:15:14.750Z,34.20
2018-05-29T08:17:43.062Z,35.20
2018-05-29T08:20:10.586Z,35.10
2018-05-29T08:22:38.877Z,37.70
2018-05-29T08:25:07.189Z,36.80
2018-05-29T08:27:34.708Z,36.80
2018-05-29T08:30:02.994Z,34.30
2018-05-29T08:32:31.327Z,34.40
2018-05-29T08:34:58.877Z,34.40
2018-05-29T08:37:26.401Z,33.70
2018-05-29T08:39:54.718Z,32.70
2018-05-29T08:42:22.326Z,32.70
2018-05-29T08:44:50.529Z,33.00
2018-05-29T08:47:18.837Z,32.20
2018-05-29T08:49:46.373Z,32.10
2018-05-29T08:52:14.657Z,31.50
2018-05-29T08:54:42.961Z,30.30
2018-05-29T08:57:10.488Z,30.20
2018-05-29T08:59:38.011Z,31.10
2018-05-29T09:02:05.554Z,30.20
2018-05-29T09:04:33.096Z,28.80
2018-05-29T09:07:00.602Z,29.00
2018-05-29T09:09:28.147Z,27.90
2018-05-29T09:11:55.862Z,29.10
2018-05-29T09:14:23.406Z,28.10
2018-05-29T09:16:50.954Z,29.00
2018-05-29T09:19:18.521Z,27.20
2018-05-29T09:21:46.505Z,28.10
2018-05-29T09:24:14.060Z,27.60
2018-05-29T09:26:41.574Z,27.00
2018-05-29T09:29:09.097Z,27.40
2018-05-29T09:31:36.636Z,27.80
2018-05-29T09:34:04.158Z,26.80
2018-05-29T09:36:31.703Z,27.90
2018-05-29T09:38:59.233Z,26.60
2018-05-29T09:41:27.559Z,26.70
2018-05-29T09:43:55.101Z,26.60
2018-05-29T09:46:22.662Z,25.80
2018-05-29T09:48:50.166Z,26.00
2018-05-29T09:51:18.465Z,24.50
2018-05-29T09:53:46.776Z,24.80
2018-05-29T09:56:15.062Z,24.90
2018-05-29T09:58:42.574Z,24.80
2018-05-29T10:01:10.171Z,24.10
2018-05-29T10:03:37.653Z,24.00
2018-05-29T10:06:05.177Z,23.70
2018-05-29T10:08:32.725Z,21.70
2018-05-29T10:11:01.006Z,24.20
2018-05-29T10:13:28.626Z,24.20
2018-05-29T10:15:56.187Z,24.80
2018-05-29T10:18:23.712Z,23.60
2018-05-29T10:20:51.222Z,22.60
2018-05-29T10:23:18.812Z,23.40
2018-05-29T10:25:46.309Z,22.70
2018-05-29T10:28:13.923Z,22.70
2018-05-29T10:30:41.481Z,23.10
2018-05-29T10:33:09.010Z,22.20
2018-05-29T10:35:37.294Z,22.80
2018-05-29T10:38:05.606Z,24.20
2018-05-29T10:40:33.134Z,24.20
2018-05-29T10:43:00.657Z,24.60
2018-05-29T10:45:28.197Z,24.00
2018-05-29T10:47:55.731Z,23.00
2018-05-29T10:50:24.006Z,22.70
2018-05-29T10:52:51.564Z,22.70
2018-05-29T10:55:19.090Z,22.50
2018-05-29T10:57:46.643Z,23.40
2018-05-29T11:00:14.181Z,22.50
2018-05-29T11:02:42.485Z,24.50
2018-05-29T11:05:10.046Z,24.50
2018-05-29T11:07:37.598Z,24.20
2018-05-29T11:10:05.164Z,24.10
2018-05-29T11:12:32.689Z,23.30
2018-05-29T11:15:00.386Z,24.40
2018-05-29T11:17:28.685Z,25.70
2018-05-29T11:19:56.261Z,25.10
2018-05-29T11:22:23.807Z,26.50
2018-05-29T11:24:51.406Z,25.60
2018-05-29T11:27:18.926Z,24.80
2018-05-29T11:29:47.240Z,24.70
2018-05-29T11:32:14.760Z,24.60
2018-05-29T11:34:42.283Z,23.60
2018-05-29T11:37:09.846Z,23.50
2018-05-29T11:39:37.370Z,24.10
2018-05-29T11:42:05.657Z,24.20
2018-05-29T11:44:33.209Z,24.00
2018-05-29T11:47:01.494Z,25.10
2018-05-29T11:49:29.765Z,24.60
2018-05-29T11:51:58.175Z,25.20
2018-05-29T11:54:25.710Z,25.10
2018-05-29T11:56:53.985Z,26.90
2018-05-29T11:59:23.025Z,28.70
2018-05-29T12:01:50.579Z,28.70
2018-05-29T12:04:18.146Z,29.10
2018-05-29T12:06:45.722Z,30.50
2018-05-29T12:09:13.244Z,31.10
2018-05-29T12:11:40.781Z,30.90
2018-05-29T12:14:08.417Z,32.40
2018-05-29T12:16:36.909Z,32.90
2018-05-29T12:19:04.445Z,32.80
2018-05-29T12:21:32.746Z,31.80
2018-05-29T12:24:00.258Z,31.80
2018-05-29T12:26:29.287Z,32.80
2018-05-29T12:28:57.593Z,32.80
2018-05-29T12:31:25.097Z,32.70
2018-05-29T12:33:52.654Z,31.00
2018-05-29T12:36:20.201Z,29.00
2018-05-29T12:38:47.721Z,29.70
2018-05-29T12:41:16.010Z,25.30
2018-05-29T12:43:44.314Z,25.90
2018-05-29T12:46:11.892Z,25.90
2018-05-29T12:48:39.410Z,24.30
2018-05-29T12:51:07.741Z,24.50
2018-05-29T12:53:35.273Z,24.40
2018-05-29T12:56:02.829Z,25.10
2018-05-29T12:58:31.152Z,27.30
2018-05-29T13:00:58.696Z,27.20
2018-05-29T13:03:26.218Z,27.50
2018-05-29T13:05:53.775Z,26.30
2018-05-29T13:08:21.293Z,26.20
2018-05-29T13:10:48.813Z,27.90
2018-05-29T13:13:16.386Z,27.10
2018-05-29T13:15:44.737Z,26.80
2018-05-29T13:18:12.349Z,26.80
2018-05-29T13:20:39.893Z,26.50
2018-05-29T13:23:07.409Z,26.90
2018-05-29T13:25:34.934Z,28.20
2018-05-29T13:28:03.248Z,29.10
2018-05-29T13:30:30.779Z,29.10
2018-05-29T13:32:59.059Z,29.20
2018-05-29T13:35:27.466Z,29.00
2018-05-29T13:37:55.026Z,28.90
2018-05-29T13:40:23.317Z,28.60
2018-05-29T13:42:50.883Z,28.50
2018-05-29T13:45:18.389Z,28.00
2018-05-29T13:47:45.909Z,28.80
2018-05-29T13:50:13.478Z,28.90
2018-05-29T13:52:41.014Z,29.50
2018-05-29T13:55:09.302Z,29.00
2018-05-29T13:57:36.861Z,29.00
2018-05-29T14:00:05.138Z,30.00
2018-05-29T14:02:33.418Z,29.50
2018-05-29T14:05:01.718Z,31.00
2018-05-29T14:07:29.243Z,30.80
2018-05-29T14:09:56.763Z,30.00
2018-05-29T14:12:24.324Z,30.00
2018-05-29T14:14:51.913Z,30.90
2018-05-29T14:17:19.454Z,31.90
2018-05-29T14:19:47.051Z,31.70
2018-05-29T14:22:14.566Z,33.20
2018-05-29T14:24:42.695Z,32.30
2018-05-29T14:27:10.237Z,31.90
2018-05-29T14:29:37.754Z,31.80
2018-05-29T14:32:06.066Z,31.80
2018-05-29T14:34:33.614Z,31.70
2018-05-29T14:37:01.133Z,32.10
2018-05-29T14:39:28.661Z,32.80
2018-05-29T14:41:56.202Z,32.70
2018-05-29T14:44:24.503Z,31.80
2018-05-29T14:46:52.013Z,31.80
2018-05-29T14:49:19.590Z,32.60
2018-05-29T14:51:47.875Z,32.10
2018-05-29T14:54:15.382Z,31.90
2018-05-29T14:56:42.918Z,31.70
2018-05-29T14:59:11.237Z,32.10
2018-05-29T15:01:38.756Z,32.00
2018-05-29T15:04:07.162Z,32.30
2018-05-29T15:06:34.692Z,32.20
2018-05-29T15:09:02.224Z,32.90
2018-05-29T15:11:29.878Z,31.60
2018-05-29T15:13:58.161Z,32.90
2018-05-29T15:16:26.457Z,33.60
2018-05-29T15:18:53.990Z,33.50
2018-05-29T15:21:21.719Z,33.70
2018-05-29T15:23:49.229Z,32.40
2018-05-29T15:29:07.161Z,33.10
2018-05-29T15:31:34.674Z,34.30
2018-05-29T15:34:02.184Z,32.80
2018-05-29T15:36:30.473Z,33.30
2018-05-29T15:38:57.981Z,33.20
2018-05-29T15:41:25.518Z,35.40
2018-05-29T15:43:53.050Z,33.40
2018-05-29T15:46:21.337Z,34.70
2018-05-29T15:48:49.645Z,34.70
2018-05-29T15:51:17.976Z,34.30
2018-05-29T15:53:45.484Z,34.20
2018-05-29T15:56:12.996Z,34.70
2018-05-29T15:58:40.557Z,35.60
2018-05-29T16:01:08.090Z,35.70
2018-05-29T16:03:35.588Z,35.10
2018-05-29T16:06:03.193Z,36.40
2018-05-29T16:08:30.745Z,34.10
2018-05-29T16:10:59.045Z,34.50
2018-05-29T16:13:26.585Z,34.50
2018-05-29T16:15:54.860Z,34.80
2018-05-29T16:18:23.150Z,37.20
2018-05-29T16:20:51.464Z,37.50
2018-05-29T16:23:19.177Z,37.40
2018-05-29T16:25:46.721Z,33.90
2018-05-29T16:28:14.248Z,34.50
2018-05-29T16:30:42.536Z,36.90
2018-05-29T16:33:10.093Z,36.90
2018-05-29T16:35:37.630Z,37.30
2018-05-29T16:38:05.140Z,36.30
2018-05-29T16:40:32.718Z,36.40
2018-05-29T16:43:00.349Z,36.10
2018-05-29T16:45:27.869Z,35.70
2018-05-29T16:47:55.397Z,36.50
2018-05-29T16:50:22.940Z,37.10
2018-05-29T16:52:51.224Z,36.70
2018-05-29T16:55:18.792Z,36.70
2018-05-29T16:57:47.152Z,36.50
2018-05-29T17:00:15.429Z,36.10
2018-05-29T17:02:43.737Z,36.00
2018-05-29T17:05:12.046Z,36.30
2018-05-29T17:07:39.552Z,36.30
2018-05-29T17:10:07.074Z,35.70
2018-05-29T17:12:34.623Z,36.30
2018-05-29T17:15:02.133Z,36.80
2018-05-29T17:17:29.677Z,35.70
2018-05-29T17:19:57.215Z,36.50
2018-05-29T17:22:25.500Z,37.10
2018-05-29T17:24:53.072Z,37.00
2018-05-29T17:27:20.604Z,37.10
2018-05-29T17:29:48.904Z,36.70
2018-05-29T17:32:16.436Z,36.60
2018-05-29T17:34:44.743Z,36.20
2018-05-29T17:37:12.264Z,36.10
2018-05-29T17:39:39.788Z,35.70
2018-05-29T17:42:07.325Z,36.40
2018-05-29T17:44:35.596Z,35.70
2018-05-29T17:47:03.873Z,36.70
2018-05-29T17:49:32.212Z,36.00
2018-05-29T17:51:59.731Z,36.00
2018-05-29T17:54:28.004Z,36.60
2018-05-29T17:56:56.318Z,36.30
2018-05-29T17:59:23.872Z,36.20
2018-05-29T18:01:51.382Z,36.20
2018-05-29T18:04:18.917Z,36.70
2018-05-29T18:06:46.425Z,37.10
2018-05-29T18:09:13.944Z,38.40
2018-05-29T18:11:41.491Z,37.50
2018-05-29T18:14:09.048Z,37.50
2018-05-29T18:16:36.530Z,37.90
2018-05-29T18:19:04.065Z,38.60
2018-05-29T18:21:32.346Z,38.30
2018-05-29T18:24:00.612Z,38.50
2018-05-29T18:26:28.193Z,38.50
2018-05-29T18:28:56.470Z,39.60
2018-05-29T18:31:24.768Z,40.00
2018-05-29T18:33:52.309Z,40.00
2018-05-29T18:36:19.821Z,40.80
2018-05-29T18:38:47.849Z,40.80
2018-05-29T18:41:16.165Z,41.50
2018-05-29T18:43:43.672Z,41.40
2018-05-29T18:46:11.182Z,41.70
2018-05-29T18:48:38.729Z,41.90
2018-05-29T18:51:07.013Z,42.20
2018-05-29T18:53:35.297Z,42.40
2018-05-29T18:56:03.603Z,42.20
2018-05-29T18:58:31.108Z,42.10
2018-05-29T19:00:58.628Z,42.20
2018-05-29T19:03:26.180Z,42.30
2018-05-29T19:05:54.490Z,42.70
2018-05-29T19:08:21.989Z,42.60
2018-05-29T19:10:49.538Z,43.80
2018-05-29T19:13:17.045Z,44.50
2018-05-29T19:15:45.320Z,46.20
2018-05-29T19:18:13.718Z,46.50
2018-05-29T19:20:41.243Z,46.40
2018-05-29T19:23:09.574Z,46.80
2018-05-29T19:25:37.143Z,47.90
2018-05-29T19:28:04.756Z,48.40
2018-05-29T19:30:33.389Z,48.80
2018-05-29T19:33:00.931Z,48.80
2018-05-29T19:35:29.219Z,49.60
2018-05-29T19:37:57.513Z,50.50
2018-05-29T19:40:25.045Z,50.40
2018-05-29T19:42:52.569Z,51.20
2018-05-29T19:45:20.083Z,52.40
2018-05-29T19:47:48.449Z,53.00
2018-05-29T19:50:16.168Z,52.90
2018-05-29T19:52:43.689Z,53.70
2018-05-29T19:55:11.213Z,54.40
2018-05-29T19:57:38.729Z,55.40
2018-05-29T20:00:07.413Z,56.90
2018-05-29T20:02:35.736Z,56.90
2018-05-29T20:05:03.250Z,56.90
2018-05-29T20:07:30.767Z,56.90
2018-05-29T20:09:58.323Z,57.10
2018-05-29T20:12:25.831Z,57.20
2018-05-29T20:14:53.340Z,58.50
2018-05-29T20:17:30.556Z,56.80
2018-05-29T20:19:58.152Z,59.20
2018-05-29T20:22:25.642Z,66.10
2018-05-29T20:24:53.961Z,84.00
2018-05-29T20:27:21.513Z,84.10
2018-05-29T20:29:49.138Z,90.30
2018-05-29T20:32:16.674Z,94.30
2018-05-29T20:34:44.956Z,97.40
2018-05-29T20:37:12.481Z,97.50
2018-05-29T20:39:40.036Z,99.90
2018-05-29T20:42:07.545Z,99.90
2018-05-29T20:44:35.051Z,99.90
2018-05-29T20:47:03.349Z,99.20
2018-05-29T20:49:30.887Z,99.20
2018-05-29T20:51:58.497Z,98.60
2018-05-29T20:54:26.788Z,99.90
2018-05-29T20:56:54.301Z,99.90
2018-05-29T20:59:22.581Z,99.90
2018-05-29T21:01:50.897Z,99.90
2018-05-29T21:04:18.412Z,99.90
2018-05-29T21:06:45.945Z,99.90
2018-05-29T21:09:13.509Z,99.90
2018-05-29T21:11:41.815Z,99.20
2018-05-29T21:14:09.342Z,99.10
2018-05-29T21:16:36.886Z,99.50
2018-05-29T21:19:05.159Z,99.70
2018-05-29T21:21:33.437Z,99.10
2018-05-29T21:24:01.864Z,98.80
2018-05-29T21:26:29.390Z,99.10
2018-05-29T21:28:57.721Z,99.90
2018-05-29T21:31:25.348Z,99.90
2018-05-29T21:33:52.853Z,99.90
2018-05-29T21:36:20.371Z,99.90
2018-05-29T21:38:48.673Z,99.90
2018-05-29T21:41:16.193Z,99.90
2018-05-29T21:43:43.701Z,99.90
2018-05-29T21:46:11.250Z,99.90
2018-05-29T21:48:38.770Z,99.90
2018-05-29T21:51:06.285Z,99.90
2018-05-29T21:53:33.875Z,99.90
2018-05-29T21:56:01.975Z,99.90
2018-05-29T21:58:29.504Z,99.90
2018-05-29T22:00:57.831Z,99.60
2018-05-29T22:03:25.453Z,99.50
2018-05-29T22:05:52.971Z,99.90
2018-05-29T22:08:20.504Z,99.90
2018-05-29T22:10:48.027Z,99.90
2018-05-29T22:13:15.561Z,99.00
2018-05-29T22:15:43.129Z,98.90
2018-05-29T22:18:11.562Z,98.70
2018-05-29T22:20:39.085Z,98.70
2018-05-29T22:23:07.402Z,99.20
2018-05-29T22:25:34.926Z,99.20
2018-05-29T22:28:03.231Z,99.70
2018-05-29T22:30:30.868Z,99.70
2018-05-29T22:32:58.417Z,99.90
2018-05-29T22:35:26.024Z,99.20
2018-05-29T22:37:53.570Z,99.50
2018-05-29T22:40:21.857Z,99.90
2018-05-29T22:42:50.140Z,99.80
2018-05-29T22:45:18.449Z,99.70
2018-05-29T22:47:45.959Z,99.70
2018-05-29T22:50:13.561Z,99.90
2018-05-29T22:52:41.861Z,99.90
2018-05-29T22:55:09.376Z,99.90
2018-05-29T22:57:37.664Z,99.80
2018-05-29T23:00:05.980Z,99.90
2018-05-29T23:02:33.490Z,99.90
2018-05-29T23:05:01.037Z,99.80
2018-05-29T23:07:28.581Z,99.40
2018-05-29T23:09:56.116Z,98.90
2018-05-29T23:12:24.414Z,99.10
2018-05-29T23:14:52.944Z,99.10
2018-05-29T23:17:20.466Z,99.90
2018-05-29T23:19:47.985Z,99.90
2018-05-29T23:22:15.542Z,99.60
2018-05-29T23:24:43.073Z,99.50
2018-05-29T23:27:10.590Z,99.80
2018-05-29T23:29:38.925Z,99.20
2018-05-29T23:32:06.469Z,99.20
2018-05-29T23:34:34.157Z,98.70
2018-05-29T23:37:01.715Z,98.10
2018-05-29T23:39:29.273Z,97.90
2018-05-29T23:41:56.792Z,99.10
2018-05-29T23:44:24.392Z,98.60
2018-05-29T23:46:51.916Z,99.20
2018-05-29T23:49:20.198Z,99.10
2018-05-29T23:51:48.531Z,99.50
2018-05-29T23:54:16.037Z,99.40
2018-05-29T23:56:44.053Z,99.30
2018-05-29T23:59:13.271Z,99.70
